createdAt,value
2019-05-13T00:02:19.816Z,7.08
2019-05-13T00:04:53.098Z,7.00
2019-05-13T00:07:24.080Z,6.90
2019-05-13T00:09:55.308Z,6.80
2019-05-13T00:12:26.548Z,6.88
2019-05-13T00:14:57.743Z,6.82
2019-05-13T00:17:29.010Z,6.86
2019-05-13T00:20:00.275Z,6.85
2019-05-13T00:22:33.867Z,6.77
2019-05-13T00:25:04.389Z,6.68
2019-05-13T00:27:35.779Z,6.61
2019-05-13T00:30:09.210Z,6.57
2019-05-13T00:32:40.482Z,6.58
2019-05-13T00:35:14.215Z,6.44
2019-05-13T00:37:45.731Z,6.31
2019-05-13T00:40:17.084Z,6.07
2019-05-13T00:42:48.258Z,5.98
2019-05-13T00:45:19.537Z,6.12
2019-05-13T00:47:50.784Z,6.07
2019-05-13T00:50:24.018Z,5.97
2019-05-13T00:52:54.872Z,5.90
2019-05-13T00:55:26.085Z,5.82
2019-05-13T00:57:57.394Z,5.80
2019-05-13T01:00:28.772Z,5.84
2019-05-13T01:02:59.972Z,5.73
2019-05-13T01:05:31.218Z,5.76
2019-05-13T01:08:04.257Z,5.64
2019-05-13T01:10:35.552Z,5.64
2019-05-13T01:13:06.748Z,5.53
2019-05-13T01:15:37.996Z,5.31
2019-05-13T01:18:09.213Z,5.52
2019-05-13T01:20:40.435Z,5.42
2019-05-13T01:23:13.890Z,5.45
2019-05-13T01:25:44.727Z,5.48
2019-05-13T01:28:15.918Z,5.42
2019-05-13T01:30:47.180Z,5.44
2019-05-13T01:33:18.470Z,5.34
2019-05-13T01:35:49.732Z,5.38
2019-05-13T01:38:21.166Z,5.34
2019-05-13T01:40:53.999Z,5.24
2019-05-13T01:43:25.202Z,5.15
2019-05-13T01:45:56.475Z,5.28
2019-05-13T01:48:27.764Z,5.23
2019-05-13T01:50:58.974Z,5.29
2019-05-13T01:53:30.230Z,5.21
2019-05-13T01:56:03.648Z,5.17
2019-05-13T01:58:34.424Z,5.20
2019-05-13T02:01:05.772Z,5.07
2019-05-13T02:03:37.076Z,5.08
2019-05-13T02:06:08.291Z,5.03
2019-05-13T02:08:39.441Z,5.04
2019-05-13T02:11:10.717Z,4.94
2019-05-13T02:13:44.489Z,4.87
2019-05-13T02:16:14.840Z,4.77
2019-05-13T02:18:46.085Z,4.73
2019-05-13T02:21:17.341Z,4.71
2019-05-13T02:23:48.677Z,4.75
2019-05-13T02:26:19.905Z,4.70
2019-05-13T02:28:51.108Z,4.65
2019-05-13T02:31:38.911Z,4.64
2019-05-13T02:33:55.216Z,4.55
2019-05-13T02:36:26.494Z,4.48
2019-05-13T02:38:57.747Z,4.38
2019-05-13T02:41:29.020Z,4.28
2019-05-13T02:44:03.208Z,4.24
2019-05-13T02:46:34.033Z,4.20
2019-05-13T02:49:05.538Z,4.27
2019-05-13T02:51:36.784Z,4.03
2019-05-13T02:54:07.979Z,3.96
2019-05-13T02:56:41.584Z,4.02
2019-05-13T02:59:13.210Z,3.93
2019-05-13T03:01:44.729Z,3.89
2019-05-13T03:04:15.934Z,3.78
2019-05-13T03:06:47.140Z,3.69
2019-05-13T03:09:18.371Z,3.53
2019-05-13T03:11:53.203Z,3.51
2019-05-13T03:14:23.947Z,3.56
2019-05-13T03:17:03.256Z,3.42
2019-05-13T03:19:34.065Z,3.32
2019-05-13T03:22:05.342Z,3.25
2019-05-13T03:24:36.590Z,3.36
2019-05-13T03:27:07.779Z,3.51
2019-05-13T03:29:39.015Z,3.57
2019-05-13T03:32:15.755Z,3.54
2019-05-13T03:34:45.578Z,3.61
2019-05-13T03:37:16.737Z,3.59
2019-05-13T03:39:52.145Z,3.42
2019-05-13T03:42:26.275Z,3.48
2019-05-13T03:45:03.096Z,3.46
2019-05-13T03:47:35.425Z,3.40
2019-05-13T03:50:08.525Z,3.33
2019-05-13T03:52:43.117Z,3.37
2019-05-13T03:55:13.311Z,3.45
2019-05-13T03:57:44.644Z,3.49
2019-05-13T04:00:16.384Z,3.68
2019-05-13T04:02:48.087Z,3.76
2019-05-13T04:05:22.478Z,3.76
2019-05-13T04:07:52.883Z,4.01
2019-05-13T04:10:24.130Z,4.06
2019-05-13T04:12:55.564Z,4.06
2019-05-13T04:15:26.853Z,4.11
2019-05-13T04:18:02.537Z,4.04
2019-05-13T04:20:33.263Z,4.15
2019-05-13T04:23:04.409Z,4.22
2019-05-13T04:25:39.593Z,4.32
2019-05-13T04:28:08.793Z,4.43
2019-05-13T04:30:43.358Z,4.62
2019-05-13T04:33:14.161Z,4.76
2019-05-13T04:35:45.744Z,4.89
2019-05-13T04:38:16.913Z,5.01
2019-05-13T04:40:48.152Z,5.23
2019-05-13T04:43:23.205Z,5.37
2019-05-13T04:45:52.738Z,5.43
2019-05-13T04:48:24.195Z,5.57
2019-05-13T04:50:55.792Z,5.79
2019-05-13T04:53:27.230Z,5.82
2019-05-13T04:56:03.075Z,5.87
2019-05-13T04:58:35.513Z,6.16
2019-05-13T05:01:55.354Z,6.13
2019-05-13T05:04:54.805Z,6.28
2019-05-13T05:08:24.670Z,6.40
2019-05-13T05:12:04.908Z,6.45
2019-05-13T05:15:52.253Z,6.50
2019-05-13T05:19:24.883Z,6.73
2019-05-13T05:22:17.808Z,6.89
2019-05-13T05:25:15.021Z,6.90
2019-05-13T05:28:15.419Z,7.19
2019-05-13T05:31:58.383Z,7.37
2019-05-13T05:35:33.381Z,7.47
2019-05-13T05:38:43.485Z,7.71
2019-05-13T05:41:21.355Z,7.71
2019-05-13T05:43:56.619Z,7.81
2019-05-13T05:46:32.228Z,8.11
2019-05-13T05:49:09.111Z,8.42
2019-05-13T05:51:42.002Z,8.82
2019-05-13T05:54:14.778Z,8.91
2019-05-13T05:56:51.910Z,9.08
2019-05-13T05:59:26.542Z,9.61
2019-05-13T06:02:01.931Z,9.79
2019-05-13T06:04:32.731Z,9.99
2019-05-13T06:07:04.926Z,10.39
2019-05-13T06:09:36.302Z,10.42
2019-05-13T06:12:07.660Z,10.74
2019-05-13T06:14:42.119Z,10.30
2019-05-13T06:17:12.481Z,10.44
2019-05-13T06:19:44.367Z,10.42
2019-05-13T06:22:15.512Z,10.93
2019-05-13T06:24:46.865Z,11.24
2019-05-13T06:27:18.097Z,10.95
2019-05-13T06:29:52.634Z,10.74
2019-05-13T06:32:26.246Z,10.68
2019-05-13T06:34:55.395Z,10.66
2019-05-13T06:37:26.778Z,10.79
2019-05-13T06:39:58.235Z,10.94
2019-05-13T06:42:29.523Z,11.18
2019-05-13T06:45:01.927Z,11.46
2019-05-13T06:47:36.155Z,11.19
2019-05-13T06:50:06.605Z,11.88
2019-05-13T06:52:37.871Z,11.83
2019-05-13T06:55:11.575Z,12.47
2019-05-13T06:57:42.667Z,12.99
2019-05-13T07:00:14.125Z,13.36
2019-05-13T07:02:45.345Z,14.27
2019-05-13T07:05:16.706Z,14.31
2019-05-13T07:07:47.938Z,14.13
2019-05-13T07:10:21.480Z,14.46
2019-05-13T07:12:52.118Z,14.21
2019-05-13T07:15:23.412Z,14.18
2019-05-13T07:17:54.613Z,14.20
2019-05-13T07:20:25.885Z,13.58
2019-05-13T07:22:57.094Z,13.73
2019-05-13T07:25:28.349Z,14.06
2019-05-13T07:28:02.257Z,14.05
2019-05-13T07:30:43.389Z,14.05
2019-05-13T07:33:14.836Z,13.61
2019-05-13T07:35:46.702Z,13.67
2019-05-13T07:38:19.196Z,13.97
2019-05-13T07:40:57.599Z,14.59
2019-05-13T07:43:28.772Z,14.67
2019-05-13T07:46:02.057Z,14.71
2019-05-13T07:48:33.342Z,14.81
2019-05-13T07:51:05.031Z,15.18
2019-05-13T07:53:37.567Z,14.98
2019-05-13T07:56:08.855Z,15.29
2019-05-13T07:58:41.831Z,15.56
2019-05-13T08:01:13.145Z,15.67
2019-05-13T08:03:47.105Z,16.35
2019-05-13T08:06:18.370Z,17.00
2019-05-13T08:08:52.113Z,16.89
2019-05-13T08:11:23.991Z,15.53
2019-05-13T08:14:04.820Z,15.32
2019-05-13T08:16:56.862Z,16.41
2019-05-13T08:19:36.949Z,16.76
2019-05-13T08:22:37.311Z,17.21
2019-05-13T08:25:38.942Z,17.01
2019-05-13T08:28:12.303Z,17.41
2019-05-13T08:30:43.227Z,16.69
2019-05-13T08:33:14.538Z,16.48
2019-05-13T08:35:47.215Z,16.58
2019-05-13T08:38:18.638Z,17.04
2019-05-13T08:40:51.246Z,16.03
2019-05-13T08:43:22.785Z,16.33
2019-05-13T08:45:55.819Z,16.61
2019-05-13T08:48:27.371Z,17.12
2019-05-13T08:50:58.649Z,17.20
2019-05-13T08:53:31.744Z,16.29
2019-05-13T08:56:02.872Z,17.08
2019-05-13T08:58:34.113Z,16.53
2019-05-13T09:01:05.538Z,17.56
2019-05-13T09:03:36.780Z,18.15
2019-05-13T09:06:08.277Z,17.69
2019-05-13T09:08:41.792Z,17.78
2019-05-13T09:11:13.075Z,17.90
2019-05-13T09:13:44.276Z,16.75
2019-05-13T09:16:15.577Z,17.15
2019-05-13T09:18:52.069Z,17.28
2019-05-13T09:21:22.655Z,16.52
2019-05-13T09:23:56.699Z,16.12
2019-05-13T09:26:31.636Z,16.46
2019-05-13T09:29:02.660Z,16.07
2019-05-13T09:31:33.934Z,15.88
2019-05-13T09:34:05.244Z,15.28
2019-05-13T09:36:36.512Z,16.08
2019-05-13T09:39:12.409Z,16.58
2019-05-13T09:41:44.605Z,17.85
2019-05-13T09:44:15.606Z,18.08
2019-05-13T09:46:46.906Z,17.02
2019-05-13T09:49:20.060Z,15.68
2019-05-13T09:51:52.273Z,16.23
2019-05-13T09:54:24.162Z,15.73
2019-05-13T09:56:55.648Z,15.59
2019-05-13T09:59:26.912Z,15.28
2019-05-13T10:01:58.194Z,15.03
2019-05-13T10:04:31.728Z,15.14
2019-05-13T10:07:02.838Z,14.89
2019-05-13T10:09:34.165Z,15.22
2019-05-13T10:12:05.913Z,15.09
2019-05-13T10:14:37.074Z,15.05
2019-05-13T10:17:08.307Z,14.89
2019-05-13T10:19:41.779Z,14.80
2019-05-13T10:22:12.451Z,14.69
2019-05-13T10:24:43.706Z,14.30
2019-05-13T10:27:18.883Z,14.20
2019-05-13T10:29:48.578Z,14.16
2019-05-13T10:32:21.984Z,14.28
2019-05-13T10:34:54.389Z,14.30
2019-05-13T10:37:25.900Z,14.54
2019-05-13T10:39:57.238Z,14.43
2019-05-13T10:42:28.577Z,14.39
2019-05-13T10:45:02.575Z,14.48
2019-05-13T10:47:32.837Z,14.63
2019-05-13T10:50:04.265Z,14.62
2019-05-13T10:52:35.505Z,14.78
2019-05-13T10:55:07.429Z,14.54
2019-05-13T10:57:38.761Z,14.57
2019-05-13T11:02:44.328Z,14.60
2019-05-13T11:05:15.723Z,14.66
2019-05-13T11:07:46.944Z,14.81
2019-05-13T11:10:24.240Z,15.00
2019-05-13T11:12:55.329Z,14.73
2019-05-13T11:15:26.592Z,14.75
2019-05-13T11:18:03.072Z,15.10
2019-05-13T11:20:44.639Z,15.16
2019-05-13T11:23:23.465Z,15.26
2019-05-13T11:26:03.243Z,14.99
2019-05-13T11:28:34.510Z,14.90
2019-05-13T11:31:05.768Z,14.64
2019-05-13T11:33:36.984Z,14.51
2019-05-13T11:36:08.262Z,14.83
2019-05-13T11:38:43.101Z,14.92
2019-05-13T11:41:12.740Z,14.84
2019-05-13T11:43:45.863Z,14.79
2019-05-13T11:46:17.143Z,15.09
2019-05-13T11:48:48.523Z,15.24
2019-05-13T11:51:19.802Z,15.11
2019-05-13T11:53:52.517Z,14.99
2019-05-13T11:56:24.040Z,15.22
2019-05-13T11:58:55.319Z,15.29
2019-05-13T12:01:26.576Z,15.51
2019-05-13T12:03:57.711Z,15.54
2019-05-13T12:06:28.875Z,15.56
2019-05-13T12:09:03.222Z,15.55
2019-05-13T12:11:33.512Z,15.47
2019-05-13T12:14:05.247Z,15.36
2019-05-13T12:16:36.485Z,15.41
2019-05-13T12:19:07.835Z,15.47
2019-05-13T12:21:43.342Z,15.59
2019-05-13T12:24:12.178Z,15.59
2019-05-13T12:26:43.689Z,15.65
2019-05-13T12:29:18.899Z,15.74
2019-05-13T12:31:52.719Z,15.86
2019-05-13T12:34:23.675Z,15.56
2019-05-13T12:36:54.859Z,15.63
2019-05-13T12:39:26.125Z,15.76
2019-05-13T12:44:27.287Z,15.82
2019-05-13T12:46:58.633Z,15.97
2019-05-13T12:49:33.559Z,15.99
2019-05-13T12:52:04.641Z,16.13
2019-05-13T12:54:35.567Z,16.06
2019-05-13T12:57:11.995Z,15.97
2019-05-13T12:59:43.036Z,15.91
2019-05-13T13:05:08.036Z,15.89
2019-05-13T13:07:18.596Z,15.68
2019-05-13T13:09:53.118Z,15.74
2019-05-13T13:12:33.266Z,15.64
2019-05-13T13:14:55.725Z,15.75
2019-05-13T13:17:26.997Z,15.87
2019-05-13T13:20:06.118Z,16.07
2019-05-13T13:22:32.075Z,16.00
2019-05-13T13:25:04.893Z,16.21
2019-05-13T13:28:03.795Z,16.07
2019-05-13T13:30:10.229Z,16.08
2019-05-13T13:32:45.338Z,16.22
2019-05-13T13:35:15.103Z,16.35
2019-05-13T13:37:46.419Z,16.30
2019-05-13T13:40:25.900Z,16.25
2019-05-13T13:42:52.983Z,16.33
2019-05-13T13:45:36.802Z,16.11
2019-05-13T13:48:04.442Z,16.41
2019-05-13T13:50:37.533Z,16.17
2019-05-13T13:53:13.888Z,16.20
2019-05-13T13:55:47.759Z,16.17
2019-05-13T13:58:25.468Z,16.18
2019-05-13T14:01:05.688Z,16.14
2019-05-13T14:03:32.956Z,16.19
2019-05-13T14:06:06.354Z,16.14
2019-05-13T14:06:32.810Z,14.52
2019-05-13T14:07:12.861Z,16.01
2019-05-13T14:08:37.148Z,16.16
2019-05-13T14:11:08.307Z,16.24
2019-05-13T14:13:39.658Z,16.44
2019-05-13T14:16:29.148Z,16.49
2019-05-13T14:18:55.359Z,16.54
2019-05-13T14:21:32.424Z,16.75
2019-05-13T14:24:05.949Z,16.94
2019-05-13T14:26:43.204Z,16.93
2019-05-13T14:29:18.210Z,17.07
2019-05-13T14:31:51.828Z,17.29
2019-05-13T14:34:22.371Z,17.50
2019-05-13T14:36:53.738Z,17.42
2019-05-13T14:39:24.991Z,17.73
2019-05-13T14:41:56.250Z,18.27
2019-05-13T14:44:27.474Z,18.78
2019-05-13T14:46:58.722Z,18.61
2019-05-13T14:49:31.734Z,18.58
2019-05-13T14:52:02.838Z,18.09
2019-05-13T14:54:34.167Z,18.07
2019-05-13T14:57:05.462Z,18.49
2019-05-13T14:59:36.721Z,19.08
2019-05-13T15:02:07.897Z,18.80
2019-05-13T15:04:41.738Z,18.03
2019-05-13T15:07:12.284Z,18.51
2019-05-13T15:09:46.670Z,18.60
2019-05-13T15:12:18.329Z,18.14
2019-05-13T15:14:52.068Z,18.55
2019-05-13T15:17:22.572Z,19.51
2019-05-13T15:20:09.525Z,19.17
2019-05-13T15:22:42.474Z,18.81
2019-05-13T15:25:14.097Z,18.69
2019-05-13T15:27:45.352Z,18.79
2019-05-13T15:30:21.813Z,19.73
2019-05-13T15:33:01.581Z,20.17
2019-05-13T15:35:32.237Z,20.40
2019-05-13T15:38:03.514Z,20.35
2019-05-13T15:40:34.951Z,19.74
2019-05-13T15:43:06.200Z,19.16
2019-05-13T15:45:37.492Z,19.09
2019-05-13T15:48:08.779Z,19.34
2019-05-13T15:50:42.042Z,19.50
2019-05-13T15:53:13.062Z,19.33
2019-05-13T15:55:44.295Z,19.57
2019-05-13T15:58:15.466Z,20.08
2019-05-13T16:00:46.736Z,20.68
2019-05-13T16:03:17.973Z,20.68
2019-05-13T16:05:51.507Z,21.35
2019-05-13T16:08:22.080Z,21.10
2019-05-13T16:10:53.589Z,21.15
2019-05-13T16:13:24.800Z,20.57
2019-05-13T16:15:56.104Z,19.24
2019-05-13T16:18:27.325Z,19.00
2019-05-13T16:20:58.587Z,18.92
2019-05-13T16:23:32.481Z,18.69
2019-05-13T16:26:02.737Z,18.30
2019-05-13T16:28:33.971Z,18.04
2019-05-13T16:31:05.294Z,17.52
2019-05-13T16:33:36.569Z,17.26
2019-05-13T16:36:07.877Z,17.20
2019-05-13T16:38:41.418Z,17.16
2019-05-13T16:41:12.686Z,16.95
2019-05-13T16:43:44.104Z,16.50
2019-05-13T16:46:15.379Z,16.41
2019-05-13T16:48:46.606Z,16.33
2019-05-13T16:51:17.800Z,16.27
2019-05-13T16:53:49.066Z,16.17
2019-05-13T16:56:27.836Z,16.16
2019-05-13T16:58:53.186Z,16.03
2019-05-13T17:01:26.840Z,16.03
2019-05-13T17:03:58.085Z,16.07
2019-05-13T17:06:29.386Z,16.20
2019-05-13T17:09:01.996Z,16.28
2019-05-13T17:11:33.403Z,16.26
2019-05-13T17:14:11.669Z,16.12
2019-05-13T17:16:42.982Z,15.97
2019-05-13T17:19:14.332Z,15.92
2019-05-13T17:21:45.424Z,15.90
2019-05-13T17:24:16.689Z,15.76
2019-05-13T17:26:47.982Z,15.74
2019-05-13T17:29:21.146Z,15.68
2019-05-13T17:31:52.119Z,15.74
2019-05-13T17:34:23.261Z,15.81
2019-05-13T17:36:54.570Z,15.84
2019-05-13T17:39:26.026Z,15.79
2019-05-13T17:41:57.298Z,15.80
2019-05-13T17:44:28.663Z,15.77
2019-05-13T17:47:01.730Z,15.72
2019-05-13T17:49:33.032Z,15.66
2019-05-13T17:52:04.318Z,15.70
2019-05-13T17:54:35.918Z,15.56
2019-05-13T17:57:07.443Z,15.40
2019-05-13T17:59:38.856Z,15.36
2019-05-13T18:02:12.856Z,15.29
2019-05-13T18:04:49.268Z,15.20
2019-05-13T18:07:23.488Z,15.15
2019-05-13T18:09:57.793Z,15.10
2019-05-13T18:12:29.301Z,15.00
2019-05-13T18:15:02.501Z,14.95
2019-05-13T18:17:36.231Z,14.86
2019-05-13T18:20:08.576Z,14.81
2019-05-13T18:22:42.405Z,14.77
2019-05-13T18:25:13.979Z,14.72
2019-05-13T18:27:45.271Z,14.62
2019-05-13T18:30:16.933Z,14.52
2019-05-13T18:32:51.803Z,14.40
2019-05-13T18:35:23.261Z,14.32
2019-05-13T18:37:56.889Z,14.17
2019-05-13T18:40:33.766Z,14.12
2019-05-13T18:43:11.177Z,14.02
2019-05-13T18:45:42.527Z,14.00
2019-05-13T18:51:11.871Z,13.85
2019-05-13T18:53:43.326Z,13.78
2019-05-13T18:56:14.634Z,13.80
2019-05-13T18:58:48.639Z,13.79
2019-05-13T19:01:21.564Z,13.66
2019-05-13T19:03:53.030Z,13.60
2019-05-13T19:06:27.245Z,13.57
2019-05-13T19:09:05.908Z,13.44
2019-05-13T19:11:38.273Z,13.33
2019-05-13T19:14:12.255Z,13.18
2019-05-13T19:16:46.315Z,13.07
2019-05-13T19:19:20.680Z,13.02
2019-05-13T19:21:54.471Z,12.95
2019-05-13T19:24:25.702Z,12.95
2019-05-13T19:27:01.614Z,12.82
2019-05-13T19:29:35.291Z,12.82
2019-05-13T19:32:13.546Z,12.75
2019-05-13T19:34:47.192Z,12.80
2019-05-13T19:37:22.488Z,12.78
2019-05-13T19:39:54.041Z,12.81
2019-05-13T19:42:25.576Z,12.65
2019-05-13T19:44:56.807Z,12.61
2019-05-13T19:47:28.149Z,12.57
2019-05-13T19:50:01.922Z,12.40
2019-05-13T19:52:32.289Z,12.32
2019-05-13T19:55:03.581Z,12.22
2019-05-13T19:57:34.903Z,12.32
2019-05-13T20:00:09.971Z,12.28
2019-05-13T20:02:42.053Z,12.38
2019-05-13T20:05:13.091Z,12.37
2019-05-13T20:07:44.384Z,12.33
2019-05-13T20:10:16.066Z,12.23
2019-05-13T20:12:48.197Z,12.14
2019-05-13T20:15:22.958Z,12.14
2019-05-13T20:17:57.183Z,12.14
2019-05-13T20:20:32.941Z,12.11
2019-05-13T20:23:17.610Z,12.03
2019-05-13T20:25:52.407Z,11.98
2019-05-13T20:28:23.743Z,11.89
2019-05-13T20:30:55.027Z,11.84
2019-05-13T20:33:26.378Z,11.65
2019-05-13T20:35:57.627Z,11.59
2019-05-13T20:38:31.458Z,11.53
2019-05-13T20:41:02.095Z,11.49
2019-05-13T20:43:35.197Z,11.51
2019-05-13T20:49:31.659Z,11.45
2019-05-13T20:52:02.947Z,11.38
2019-05-13T20:54:34.277Z,11.32
2019-05-13T20:57:06.604Z,11.20
2019-05-13T20:59:37.803Z,11.14
2019-05-13T21:02:09.021Z,11.03
2019-05-13T21:04:40.378Z,10.97
2019-05-13T21:07:11.689Z,10.97
2019-05-13T21:09:43.029Z,10.96
2019-05-13T21:12:14.559Z,10.91
2019-05-13T21:14:45.799Z,10.87
2019-05-13T21:17:18.392Z,10.80
2019-05-13T21:19:52.822Z,10.78
2019-05-13T21:22:26.846Z,10.77
2019-05-13T21:25:02.011Z,10.70
2019-05-13T21:27:31.543Z,10.63
2019-05-13T21:30:02.857Z,10.55
2019-05-13T21:32:34.068Z,10.56
2019-05-13T21:35:05.539Z,10.38
2019-05-13T21:37:36.792Z,10.32
2019-05-13T21:40:11.135Z,10.29
2019-05-13T21:42:42.137Z,10.25
2019-05-13T21:45:13.662Z,10.18
2019-05-13T21:47:44.809Z,10.11
2019-05-13T21:50:16.071Z,10.14
2019-05-13T21:52:47.180Z,10.08
2019-05-13T21:55:18.465Z,10.13
2019-05-13T21:57:49.730Z,10.09
2019-05-13T22:00:24.337Z,10.02
2019-05-13T22:02:55.594Z,9.96
2019-05-13T22:05:26.855Z,9.96
2019-05-13T22:07:57.992Z,9.93
2019-05-13T22:10:31.102Z,9.86
2019-05-13T22:13:02.076Z,9.82
2019-05-13T22:15:33.437Z,9.74
2019-05-13T22:18:04.658Z,9.75
2019-05-13T22:20:47.385Z,9.76
2019-05-13T22:23:08.809Z,9.69
2019-05-13T22:25:43.396Z,9.67
2019-05-13T22:28:12.896Z,9.61
2019-05-13T22:30:44.167Z,9.53
2019-05-13T22:33:15.427Z,9.48
2019-05-13T22:35:46.705Z,9.40
2019-05-13T22:38:17.928Z,9.45
2019-05-13T22:40:49.208Z,9.29
2019-05-13T22:43:21.160Z,9.23
2019-05-13T22:45:52.553Z,9.15
2019-05-13T22:48:23.748Z,9.12
2019-05-13T22:50:55.067Z,9.10
2019-05-13T22:53:26.310Z,9.02
2019-05-13T22:55:57.546Z,8.98
2019-05-13T22:58:28.750Z,9.02
2019-05-13T23:01:02.388Z,8.99
2019-05-13T23:03:32.942Z,8.88
2019-05-13T23:06:04.169Z,8.75
2019-05-13T23:08:35.317Z,8.82
2019-05-13T23:11:06.586Z,8.74
2019-05-13T23:13:37.754Z,8.65
2019-05-13T23:16:11.404Z,8.62
2019-05-13T23:18:42.294Z,8.56
2019-05-13T23:21:14.350Z,8.56
2019-05-13T23:23:45.565Z,8.51
2019-05-13T23:26:16.768Z,8.36
2019-05-13T23:28:48.000Z,8.33
2019-05-13T23:31:19.284Z,8.26
2019-05-13T23:33:50.455Z,8.21
2019-05-13T23:36:21.713Z,8.13
2019-05-13T23:38:52.959Z,8.14
2019-05-13T23:41:24.211Z,8.13
2019-05-13T23:43:55.446Z,8.04
2019-05-13T23:46:26.733Z,8.01
2019-05-13T23:48:57.966Z,7.87
2019-05-13T23:51:29.172Z,7.77
2019-05-13T23:54:01.601Z,7.62
2019-05-13T23:56:32.930Z,7.45
2019-05-13T23:59:04.224Z,7.36
